createdAt,value
2022-11-15T00:00:25.051Z,9.74
2022-11-15T00:05:25.014Z,9.80
2022-11-15T00:10:24.930Z,9.87
2022-11-15T00:15:24.874Z,9.94
2022-11-15T00:20:24.817Z,9.95
2022-11-15T00:25:24.749Z,9.97
2022-11-15T00:30:24.684Z,9.94
2022-11-15T00:35:24.621Z,9.82
2022-11-15T00:40:24.559Z,9.79
2022-11-15T00:45:24.512Z,9.86
2022-11-15T00:50:24.406Z,9.87
2022-11-15T00:55:24.378Z,9.91
2022-11-15T01:00:24.283Z,9.84
2022-11-15T01:05:44.207Z,10.02
2022-11-15T01:10:36.613Z,10.10
2022-11-15T01:15:36.543Z,10.12
2022-11-15T01:20:36.488Z,10.05
2022-11-15T01:25:36.439Z,10.05
2022-11-15T01:30:36.354Z,9.98
2022-11-15T01:35:36.275Z,9.94
2022-11-15T01:40:36.210Z,9.94
2022-11-15T01:45:36.157Z,10.02
2022-11-15T01:50:36.105Z,10.09
2022-11-15T01:55:36.015Z,10.23
2022-11-15T02:00:36.015Z,10.35
2022-11-15T02:05:35.907Z,10.44
2022-11-15T02:10:35.815Z,10.57
2022-11-15T02:15:35.788Z,10.79
2022-11-15T02:20:35.712Z,10.92
2022-11-15T02:25:35.637Z,11.08
2022-11-15T02:30:35.573Z,11.23
2022-11-15T02:35:35.512Z,11.26
2022-11-15T02:40:35.444Z,11.25
2022-11-15T02:45:35.347Z,11.25
2022-11-15T02:50:35.295Z,11.29
2022-11-15T02:55:35.224Z,11.32
2022-11-15T03:00:35.237Z,11.35
2022-11-15T03:05:35.095Z,11.40
2022-11-15T03:10:35.047Z,11.45
2022-11-15T03:15:34.958Z,11.48
2022-11-15T03:20:34.896Z,11.48
2022-11-15T03:25:34.821Z,11.44
2022-11-15T03:30:34.757Z,11.47
2022-11-15T03:35:34.698Z,11.50
2022-11-15T03:40:34.626Z,11.55
2022-11-15T03:45:34.563Z,11.65
2022-11-15T03:50:34.515Z,11.65
2022-11-15T03:55:34.421Z,11.60
2022-11-15T04:00:34.356Z,11.59
2022-11-15T04:05:34.286Z,11.60
2022-11-15T04:10:34.246Z,11.52
2022-11-15T04:15:34.158Z,11.50
2022-11-15T04:20:34.095Z,11.54
2022-11-15T04:25:34.039Z,11.51
2022-11-15T04:30:33.976Z,11.51
2022-11-15T04:35:33.900Z,11.50
2022-11-15T04:40:33.840Z,11.48
2022-11-15T04:45:33.772Z,11.45
2022-11-15T04:50:33.679Z,11.48
2022-11-15T04:55:33.643Z,11.47
2022-11-15T05:00:33.568Z,11.32
2022-11-15T05:05:33.477Z,11.22
2022-11-15T05:10:33.435Z,11.26
2022-11-15T05:15:47.888Z,11.18
2022-11-15T05:20:40.280Z,11.19
2022-11-15T05:25:40.228Z,11.08
2022-11-15T05:30:40.149Z,10.96
2022-11-15T05:35:40.098Z,10.84
2022-11-15T05:40:40.030Z,10.72
2022-11-15T05:45:39.980Z,10.60
2022-11-15T05:50:39.905Z,10.56
2022-11-15T05:55:39.823Z,10.68
2022-11-15T06:00:39.762Z,10.71
2022-11-15T06:05:39.695Z,10.69
2022-11-15T06:10:39.646Z,10.71
2022-11-15T06:15:39.556Z,10.78
2022-11-15T06:20:39.498Z,10.81
2022-11-15T06:25:39.427Z,10.81
2022-11-15T06:30:39.377Z,10.79
2022-11-15T06:35:39.293Z,10.79
2022-11-15T06:40:39.228Z,10.79
2022-11-15T06:45:39.171Z,10.74
2022-11-15T06:50:39.093Z,10.74
2022-11-15T06:55:39.034Z,10.74
2022-11-15T07:00:38.976Z,10.72
2022-11-15T07:05:38.895Z,10.74
2022-11-15T07:10:39.625Z,10.71
2022-11-15T07:15:38.767Z,10.64
2022-11-15T07:20:38.864Z,10.63
2022-11-15T07:25:38.618Z,10.60
2022-11-15T07:30:42.610Z,10.61
2022-11-15T07:35:39.509Z,10.69
2022-11-15T07:40:38.415Z,10.78
2022-11-15T07:45:38.442Z,10.90
2022-11-15T07:50:38.326Z,11.10
2022-11-15T07:55:39.194Z,11.33
2022-11-15T08:00:38.178Z,11.45
2022-11-15T08:05:38.133Z,11.43
2022-11-15T08:10:40.821Z,11.36
2022-11-15T08:15:37.965Z,11.50
2022-11-15T08:20:38.017Z,11.72
2022-11-15T08:25:37.838Z,11.78
2022-11-15T08:30:37.816Z,11.91
2022-11-15T08:35:37.718Z,12.06
2022-11-15T08:40:37.636Z,12.64
2022-11-15T08:45:37.598Z,12.87
2022-11-15T08:50:37.500Z,13.30
2022-11-15T08:55:37.429Z,13.28
2022-11-15T09:00:37.362Z,13.20
2022-11-15T09:05:37.321Z,13.16
2022-11-15T09:10:37.240Z,13.20
2022-11-15T09:15:37.215Z,13.63
2022-11-15T09:20:37.120Z,14.32
2022-11-15T09:25:37.056Z,14.86
2022-11-15T09:30:36.977Z,15.58
2022-11-15T09:35:36.902Z,15.58
2022-11-15T09:40:36.903Z,15.54
2022-11-15T09:45:36.773Z,15.04
2022-11-15T09:50:36.717Z,14.59
2022-11-15T09:55:36.632Z,14.51
2022-11-15T10:00:46.357Z,14.37
2022-11-15T10:05:37.519Z,14.26
2022-11-15T10:10:36.432Z,14.26
2022-11-15T10:15:36.388Z,16.15
2022-11-15T10:20:36.302Z,18.31
2022-11-15T10:25:36.224Z,17.46
2022-11-15T10:30:36.217Z,15.88
2022-11-15T10:35:36.110Z,15.51
2022-11-15T10:40:36.053Z,15.83
2022-11-15T10:45:35.976Z,16.35
2022-11-15T10:50:35.935Z,15.61
2022-11-15T10:55:35.831Z,15.24
2022-11-15T11:00:35.787Z,14.94
2022-11-15T11:05:41.332Z,14.69
2022-11-15T11:10:50.909Z,14.65
2022-11-15T11:15:36.562Z,14.65
2022-11-15T11:20:35.532Z,14.72
2022-11-15T11:25:35.444Z,15.11
2022-11-15T11:30:35.406Z,16.09
2022-11-15T11:35:35.290Z,15.94
2022-11-15T11:40:35.255Z,15.36
2022-11-15T11:45:35.278Z,15.07
2022-11-15T11:50:36.459Z,15.44
2022-11-15T11:55:35.061Z,17.70
2022-11-15T12:00:34.985Z,18.98
2022-11-15T12:05:34.924Z,17.05
2022-11-15T12:10:34.827Z,15.62
2022-11-15T12:15:34.808Z,15.31
2022-11-15T12:20:34.749Z,15.29
2022-11-15T12:25:34.632Z,15.02
2022-11-15T12:30:34.620Z,14.86
2022-11-15T12:35:34.539Z,14.69
2022-11-15T12:40:34.521Z,14.77
2022-11-15T12:45:34.385Z,15.00
2022-11-15T12:50:34.325Z,14.99
2022-11-15T12:55:34.251Z,14.97
2022-11-15T13:00:34.180Z,15.18
2022-11-15T13:05:34.125Z,15.11
2022-11-15T13:10:34.036Z,15.15
2022-11-15T13:15:36.942Z,15.15
2022-11-15T13:20:34.909Z,15.19
2022-11-15T13:25:33.845Z,15.19
2022-11-15T13:30:33.802Z,14.99
2022-11-15T13:35:33.725Z,14.81
2022-11-15T13:40:33.652Z,14.72
2022-11-15T13:45:33.588Z,14.73
2022-11-15T13:50:33.529Z,14.72
2022-11-15T13:55:33.431Z,14.70
2022-11-15T14:00:33.536Z,14.65
2022-11-15T14:05:33.339Z,14.51
2022-11-15T14:10:33.241Z,14.44
2022-11-15T14:15:33.181Z,14.45
2022-11-15T14:20:33.119Z,14.32
2022-11-15T14:25:33.036Z,14.17
2022-11-15T14:30:32.986Z,14.11
2022-11-15T14:35:32.922Z,14.07
2022-11-15T14:40:33.030Z,13.96
2022-11-15T14:45:32.780Z,13.85
2022-11-15T14:50:33.056Z,13.77
2022-11-15T14:55:32.661Z,13.74
2022-11-15T15:00:35.253Z,13.59
2022-11-15T15:05:32.542Z,13.53
2022-11-15T15:10:40.045Z,13.38
2022-11-15T15:15:33.392Z,13.28
2022-11-15T15:20:32.505Z,13.31
2022-11-15T15:25:32.276Z,13.22
2022-11-15T15:30:32.175Z,13.19
2022-11-15T15:35:32.522Z,13.18
2022-11-15T15:40:32.210Z,13.15
2022-11-15T15:45:31.989Z,13.12
2022-11-15T15:50:31.962Z,13.05
2022-11-15T15:55:32.011Z,13.03
2022-11-15T16:00:31.810Z,13.00
2022-11-15T16:05:31.757Z,12.93
2022-11-15T16:10:31.691Z,12.87
2022-11-15T16:15:31.627Z,12.87
2022-11-15T16:20:31.558Z,12.86
2022-11-15T16:25:31.512Z,12.82
2022-11-15T16:30:31.408Z,12.80
2022-11-15T16:35:31.377Z,12.80
2022-11-15T16:40:31.304Z,12.80
2022-11-15T16:45:31.229Z,12.80
2022-11-15T16:50:31.136Z,12.78
2022-11-15T16:55:31.063Z,12.78
2022-11-15T17:00:31.050Z,12.73
2022-11-15T17:05:30.959Z,12.72
2022-11-15T17:10:30.902Z,12.72
2022-11-15T17:15:30.814Z,12.75
2022-11-15T17:20:30.757Z,12.73
2022-11-15T17:25:30.775Z,12.75
2022-11-15T17:30:30.617Z,12.75
2022-11-15T17:35:30.548Z,12.73
2022-11-15T17:40:30.485Z,12.68
2022-11-15T17:45:30.417Z,12.68
2022-11-15T17:50:30.351Z,12.65
2022-11-15T17:55:30.281Z,12.61
2022-11-15T18:00:30.221Z,12.61
2022-11-15T18:05:30.146Z,12.57
2022-11-15T18:10:30.091Z,12.50
2022-11-15T18:15:30.034Z,12.53
2022-11-15T18:20:29.965Z,12.53
2022-11-15T18:25:29.875Z,12.47
2022-11-15T18:30:29.819Z,12.45
2022-11-15T18:35:29.750Z,12.45
2022-11-15T18:40:29.688Z,12.46
2022-11-15T18:45:29.616Z,12.45
2022-11-15T18:50:29.558Z,12.40
2022-11-15T18:55:29.624Z,12.37
2022-11-15T19:00:29.610Z,12.32
2022-11-15T19:05:29.357Z,12.29
2022-11-15T19:10:29.382Z,12.22
2022-11-15T19:15:29.245Z,12.18
2022-11-15T19:20:29.155Z,12.13
2022-11-15T19:25:29.449Z,12.09
2022-11-15T19:30:29.069Z,12.06
2022-11-15T19:35:29.080Z,12.04
2022-11-15T19:40:28.909Z,12.00
2022-11-15T19:45:28.837Z,11.97
2022-11-15T19:50:28.789Z,11.94
2022-11-15T19:55:28.719Z,11.91
2022-11-15T20:00:28.634Z,11.90
2022-11-15T20:05:28.550Z,11.87
2022-11-15T20:10:28.534Z,11.87
2022-11-15T20:15:28.445Z,11.86
2022-11-15T20:20:28.359Z,11.81
2022-11-15T20:25:28.310Z,11.77
2022-11-15T20:30:28.242Z,11.75
2022-11-15T20:35:28.149Z,11.73
2022-11-15T20:40:28.096Z,11.70
2022-11-15T20:45:28.041Z,11.72
2022-11-15T20:50:42.039Z,11.72
2022-11-15T20:55:28.890Z,11.73
2022-11-15T21:00:27.860Z,11.73
2022-11-15T21:05:27.792Z,11.78
2022-11-15T21:10:27.710Z,11.80
2022-11-15T21:15:27.640Z,11.78
2022-11-15T21:20:27.671Z,11.75
2022-11-15T21:25:27.494Z,11.77
2022-11-15T21:30:27.487Z,11.77
2022-11-15T21:35:27.386Z,11.72
2022-11-15T21:40:27.283Z,11.69
2022-11-15T21:45:27.230Z,11.68
2022-11-15T21:50:27.167Z,11.66
2022-11-15T21:55:27.114Z,11.69
2022-11-15T22:00:27.369Z,11.69
2022-11-15T22:05:26.972Z,11.65
2022-11-15T22:10:26.903Z,11.65
2022-11-15T22:15:26.826Z,11.63
2022-11-15T22:25:27.824Z,11.65
2022-11-15T22:30:26.624Z,11.63
2022-11-15T22:35:26.564Z,11.66
2022-11-15T22:40:26.505Z,11.63
2022-11-15T22:45:26.436Z,11.62
2022-11-15T22:50:26.365Z,11.60
2022-11-15T22:55:26.316Z,11.57
2022-11-15T23:00:26.245Z,11.54
2022-11-15T23:05:26.171Z,11.50
2022-11-15T23:10:26.099Z,11.48
2022-11-15T23:15:30.848Z,11.47
2022-11-15T23:20:42.461Z,11.43
2022-11-15T23:25:26.878Z,11.43
2022-11-15T23:30:25.831Z,11.41
2022-11-15T23:35:25.773Z,11.41
2022-11-15T23:40:25.705Z,11.41
2022-11-15T23:45:25.623Z,11.43
2022-11-15T23:50:25.587Z,11.43
2022-11-15T23:55:25.498Z,11.41
